sensor_id;sensor_type;location;lat;lon;timestamp;temperature;humidity
58339;DHT22;48278;52.704;6.536;2023-02-15T00:01:41;1.50;99.90
58339;DHT22;48278;52.704;6.536;2023-02-15T00:04:08;1.50;99.90
58339;DHT22;48278;52.704;6.536;2023-02-15T00:06:34;1.50;99.90
58339;DHT22;48278;52.704;6.536;2023-02-15T00:09:00;1.50;99.90
58339;DHT22;48278;52.704;6.536;2023-02-15T00:11:26;1.40;99.90
58339;DHT22;48278;52.704;6.536;2023-02-15T00:14:22;1.40;99.90
58339;DHT22;48278;52.704;6.536;2023-02-15T00:16:50;1.30;99.90
58339;DHT22;48278;52.704;6.536;2023-02-15T00:19:17;1.40;99.90
58339;DHT22;48278;52.704;6.536;2023-02-15T00:21:43;1.40;99.90
58339;DHT22;48278;52.704;6.536;2023-02-15T00:24:11;1.40;99.90
58339;DHT22;48278;52.704;6.536;2023-02-15T00:26:41;1.30;99.90
58339;DHT22;48278;52.704;6.536;2023-02-15T00:29:07;1.30;99.90
58339;DHT22;48278;52.704;6.536;2023-02-15T00:31:34;1.20;99.90
58339;DHT22;48278;52.704;6.536;2023-02-15T00:34:10;1.10;99.90
58339;DHT22;48278;52.704;6.536;2023-02-15T00:36:36;1.10;99.90
58339;DHT22;48278;52.704;6.536;2023-02-15T00:39:02;1.10;99.90
58339;DHT22;48278;52.704;6.536;2023-02-15T00:41:28;1.10;99.90
58339;DHT22;48278;52.704;6.536;2023-02-15T00:43:54;1.10;99.90
58339;DHT22;48278;52.704;6.536;2023-02-15T00:46:19;1.10;99.90
58339;DHT22;48278;52.704;6.536;2023-02-15T00:48:45;1.10;99.90
58339;DHT22;48278;52.704;6.536;2023-02-15T00:51:11;1.00;99.90
58339;DHT22;48278;52.704;6.536;2023-02-15T00:53:36;1.10;99.90
58339;DHT22;48278;52.704;6.536;2023-02-15T00:56:02;1.00;99.90
58339;DHT22;48278;52.704;6.536;2023-02-15T00:58:28;1.00;99.90
58339;DHT22;48278;52.704;6.536;2023-02-15T01:00:53;1.00;99.90
58339;DHT22;48278;52.704;6.536;2023-02-15T01:03:20;1.00;99.90
58339;DHT22;48278;52.704;6.536;2023-02-15T01:05:48;1.00;99.90
58339;DHT22;48278;52.704;6.536;2023-02-15T01:08:14;0.90;99.90
58339;DHT22;48278;52.704;6.536;2023-02-15T01:10:40;0.90;99.90
58339;DHT22;48278;52.704;6.536;2023-02-15T01:13:06;1.00;99.90
58339;DHT22;48278;52.704;6.536;2023-02-15T01:15:34;0.90;99.90
58339;DHT22;48278;52.704;6.536;2023-02-15T01:18:01;0.90;99.90
58339;DHT22;48278;52.704;6.536;2023-02-15T01:20:28;0.90;99.90
58339;DHT22;48278;52.704;6.536;2023-02-15T01:22:54;0.80;99.90
58339;DHT22;48278;52.704;6.536;2023-02-15T01:25:22;0.80;99.90
58339;DHT22;48278;52.704;6.536;2023-02-15T01:27:48;0.80;99.90
58339;DHT22;48278;52.704;6.536;2023-02-15T01:30:15;0.80;99.90
58339;DHT22;48278;52.704;6.536;2023-02-15T01:32:41;0.80;99.90
58339;DHT22;48278;52.704;6.536;2023-02-15T01:35:08;0.80;99.90
58339;DHT22;48278;52.704;6.536;2023-02-15T01:37:34;0.80;99.90
58339;DHT22;48278;52.704;6.536;2023-02-15T01:40:05;0.70;99.90
58339;DHT22;48278;52.704;6.536;2023-02-15T01:42:31;0.70;99.90
58339;DHT22;48278;52.704;6.536;2023-02-15T01:44:59;0.70;99.90
58339;DHT22;48278;52.704;6.536;2023-02-15T01:50:04;0.60;99.90
58339;DHT22;48278;52.704;6.536;2023-02-15T01:52:33;0.60;99.90
58339;DHT22;48278;52.704;6.536;2023-02-15T01:55:00;0.60;99.90
58339;DHT22;48278;52.704;6.536;2023-02-15T01:57:27;0.60;99.90
58339;DHT22;48278;52.704;6.536;2023-02-15T01:59:56;0.50;99.90
58339;DHT22;48278;52.704;6.536;2023-02-15T02:02:24;0.50;99.90
58339;DHT22;48278;52.704;6.536;2023-02-15T02:04:52;0.50;99.90
58339;DHT22;48278;52.704;6.536;2023-02-15T02:07:21;0.40;99.90
58339;DHT22;48278;52.704;6.536;2023-02-15T02:09:48;0.30;99.90
58339;DHT22;48278;52.704;6.536;2023-02-15T02:12:17;0.30;99.90
58339;DHT22;48278;52.704;6.536;2023-02-15T02:14:44;0.20;99.90
58339;DHT22;48278;52.704;6.536;2023-02-15T02:17:27;0.30;99.90
58339;DHT22;48278;52.704;6.536;2023-02-15T02:33:59;0.40;99.90
58339;DHT22;48278;52.704;6.536;2023-02-15T02:41:55;0.30;99.90
58339;DHT22;48278;52.704;6.536;2023-02-15T02:44:34;0.20;99.90
58339;DHT22;48278;52.704;6.536;2023-02-15T02:49:40;0.10;99.90
58339;DHT22;48278;52.704;6.536;2023-02-15T02:54:59;0.00;99.90
58339;DHT22;48278;52.704;6.536;2023-02-15T02:57:27;0.00;99.90
58339;DHT22;48278;52.704;6.536;2023-02-15T02:59:55;0.10;99.90
58339;DHT22;48278;52.704;6.536;2023-02-15T03:02:26;0.10;99.90
58339;DHT22;48278;52.704;6.536;2023-02-15T03:04:58;0.00;99.90
58339;DHT22;48278;52.704;6.536;2023-02-15T03:07:31;0.20;99.90
58339;DHT22;48278;52.704;6.536;2023-02-15T03:10:02;0.30;99.90
58339;DHT22;48278;52.704;6.536;2023-02-15T03:12:37;0.20;99.90
58339;DHT22;48278;52.704;6.536;2023-02-15T03:15:29;0.20;99.90
58339;DHT22;48278;52.704;6.536;2023-02-15T03:18:18;0.30;99.90
58339;DHT22;48278;52.704;6.536;2023-02-15T03:20:46;0.20;99.90
58339;DHT22;48278;52.704;6.536;2023-02-15T03:23:26;0.30;99.90
58339;DHT22;48278;52.704;6.536;2023-02-15T03:25:57;0.30;99.90
58339;DHT22;48278;52.704;6.536;2023-02-15T03:28:30;0.30;99.90
58339;DHT22;48278;52.704;6.536;2023-02-15T03:31:00;0.20;99.90
58339;DHT22;48278;52.704;6.536;2023-02-15T03:33:28;0.20;99.90
58339;DHT22;48278;52.704;6.536;2023-02-15T03:36:04;0.20;99.90
58339;DHT22;48278;52.704;6.536;2023-02-15T03:41:32;0.20;99.90
58339;DHT22;48278;52.704;6.536;2023-02-15T03:44:37;0.10;99.90
58339;DHT22;48278;52.704;6.536;2023-02-15T03:47:13;0.10;99.90
58339;DHT22;48278;52.704;6.536;2023-02-15T03:50:04;0.10;99.90
58339;DHT22;48278;52.704;6.536;2023-02-15T03:52:52;0.10;99.90
58339;DHT22;48278;52.704;6.536;2023-02-15T03:55:18;0.00;99.90
58339;DHT22;48278;52.704;6.536;2023-02-15T03:57:44;0.10;99.90
58339;DHT22;48278;52.704;6.536;2023-02-15T04:00:29;0.00;99.90
58339;DHT22;48278;52.704;6.536;2023-02-15T04:03:39;0.00;99.90
58339;DHT22;48278;52.704;6.536;2023-02-15T04:06:05;0.00;99.90
58339;DHT22;48278;52.704;6.536;2023-02-15T04:08:31;0.00;99.90
58339;DHT22;48278;52.704;6.536;2023-02-15T04:11:17;0.00;99.90
58339;DHT22;48278;52.704;6.536;2023-02-15T04:13:42;0.00;99.90
58339;DHT22;48278;52.704;6.536;2023-02-15T04:16:08;0.00;99.90
58339;DHT22;48278;52.704;6.536;2023-02-15T04:18:42;-0.10;99.90
58339;DHT22;48278;52.704;6.536;2023-02-15T04:21:29;-0.10;99.90
58339;DHT22;48278;52.704;6.536;2023-02-15T04:24:14;-0.10;99.90
58339;DHT22;48278;52.704;6.536;2023-02-15T04:27:00;-0.10;99.90
58339;DHT22;48278;52.704;6.536;2023-02-15T04:29:27;0.00;99.90
58339;DHT22;48278;52.704;6.536;2023-02-15T04:31:54;-0.10;99.90
58339;DHT22;48278;52.704;6.536;2023-02-15T04:34:20;0.00;99.90
58339;DHT22;48278;52.704;6.536;2023-02-15T04:36:46;0.00;99.90
58339;DHT22;48278;52.704;6.536;2023-02-15T04:39:13;0.00;99.90
58339;DHT22;48278;52.704;6.536;2023-02-15T04:41:39;0.00;99.90
58339;DHT22;48278;52.704;6.536;2023-02-15T04:44:04;-0.20;99.90
58339;DHT22;48278;52.704;6.536;2023-02-15T04:46:31;-0.10;99.90
58339;DHT22;48278;52.704;6.536;2023-02-15T04:48:57;-0.20;99.90
58339;DHT22;48278;52.704;6.536;2023-02-15T04:51:23;-0.20;99.90
58339;DHT22;48278;52.704;6.536;2023-02-15T04:53:48;-0.20;99.90
58339;DHT22;48278;52.704;6.536;2023-02-15T04:56:14;-0.20;99.90
58339;DHT22;48278;52.704;6.536;2023-02-15T04:58:40;-0.20;99.90
58339;DHT22;48278;52.704;6.536;2023-02-15T05:01:07;-0.10;99.90
58339;DHT22;48278;52.704;6.536;2023-02-15T05:03:34;-0.10;99.90
58339;DHT22;48278;52.704;6.536;2023-02-15T05:06:00;0.00;99.90
58339;DHT22;48278;52.704;6.536;2023-02-15T05:08:26;-0.10;99.90
58339;DHT22;48278;52.704;6.536;2023-02-15T05:10:51;0.00;99.90
58339;DHT22;48278;52.704;6.536;2023-02-15T05:13:17;0.00;99.90
58339;DHT22;48278;52.704;6.536;2023-02-15T05:15:47;0.00;99.90
58339;DHT22;48278;52.704;6.536;2023-02-15T05:18:13;0.00;99.90
58339;DHT22;48278;52.704;6.536;2023-02-15T05:20:39;0.00;99.90
58339;DHT22;48278;52.704;6.536;2023-02-15T05:23:05;-0.10;99.90
58339;DHT22;48278;52.704;6.536;2023-02-15T05:25:31;-0.10;99.90
58339;DHT22;48278;52.704;6.536;2023-02-15T05:28:15;-0.10;99.90
58339;DHT22;48278;52.704;6.536;2023-02-15T05:33:12;0.00;99.90
58339;DHT22;48278;52.704;6.536;2023-02-15T05:35:38;-0.10;99.90
58339;DHT22;48278;52.704;6.536;2023-02-15T05:38:03;-0.10;99.90
58339;DHT22;48278;52.704;6.536;2023-02-15T05:40:29;-0.10;99.90
58339;DHT22;48278;52.704;6.536;2023-02-15T05:42:56;-0.10;99.90
58339;DHT22;48278;52.704;6.536;2023-02-15T05:45:22;-0.10;99.90
58339;DHT22;48278;52.704;6.536;2023-02-15T05:47:48;-0.10;99.90
58339;DHT22;48278;52.704;6.536;2023-02-15T05:50:14;-0.10;99.90
58339;DHT22;48278;52.704;6.536;2023-02-15T05:52:40;-0.20;99.90
58339;DHT22;48278;52.704;6.536;2023-02-15T05:55:06;-0.10;99.90
58339;DHT22;48278;52.704;6.536;2023-02-15T05:57:34;0.00;99.90
58339;DHT22;48278;52.704;6.536;2023-02-15T06:00:01;0.00;99.90
58339;DHT22;48278;52.704;6.536;2023-02-15T06:02:32;0.00;99.90
58339;DHT22;48278;52.704;6.536;2023-02-15T06:04:58;0.10;99.90
58339;DHT22;48278;52.704;6.536;2023-02-15T06:07:24;0.10;99.90
58339;DHT22;48278;52.704;6.536;2023-02-15T06:09:50;0.10;99.90
58339;DHT22;48278;52.704;6.536;2023-02-15T06:12:15;0.10;99.90
58339;DHT22;48278;52.704;6.536;2023-02-15T06:14:41;0.10;99.90
58339;DHT22;48278;52.704;6.536;2023-02-15T06:17:07;0.10;99.90
58339;DHT22;48278;52.704;6.536;2023-02-15T06:19:33;0.10;99.90
58339;DHT22;48278;52.704;6.536;2023-02-15T06:21:58;0.10;99.90
58339;DHT22;48278;52.704;6.536;2023-02-15T06:24:24;0.10;99.90
58339;DHT22;48278;52.704;6.536;2023-02-15T06:26:50;0.20;99.90
58339;DHT22;48278;52.704;6.536;2023-02-15T06:29:16;0.20;99.90
58339;DHT22;48278;52.704;6.536;2023-02-15T06:31:41;0.10;99.90
58339;DHT22;48278;52.704;6.536;2023-02-15T06:34:07;0.20;99.90
58339;DHT22;48278;52.704;6.536;2023-02-15T06:36:39;0.20;99.90
58339;DHT22;48278;52.704;6.536;2023-02-15T06:39:05;0.20;99.90
58339;DHT22;48278;52.704;6.536;2023-02-15T06:41:33;0.20;99.90
58339;DHT22;48278;52.704;6.536;2023-02-15T06:43:59;0.30;99.90
58339;DHT22;48278;52.704;6.536;2023-02-15T06:46:25;0.20;99.90
58339;DHT22;48278;52.704;6.536;2023-02-15T06:48:51;0.30;99.90
58339;DHT22;48278;52.704;6.536;2023-02-15T06:51:17;0.20;99.90
58339;DHT22;48278;52.704;6.536;2023-02-15T06:53:43;0.20;99.90
58339;DHT22;48278;52.704;6.536;2023-02-15T06:56:09;0.30;99.90
58339;DHT22;48278;52.704;6.536;2023-02-15T06:58:37;0.40;99.90
58339;DHT22;48278;52.704;6.536;2023-02-15T07:01:03;0.40;99.90
58339;DHT22;48278;52.704;6.536;2023-02-15T07:03:29;0.40;99.90
58339;DHT22;48278;52.704;6.536;2023-02-15T07:05:56;0.50;99.90
58339;DHT22;48278;52.704;6.536;2023-02-15T07:08:22;0.50;99.90
58339;DHT22;48278;52.704;6.536;2023-02-15T07:10:50;0.50;99.90
58339;DHT22;48278;52.704;6.536;2023-02-15T07:13:16;0.50;99.90
58339;DHT22;48278;52.704;6.536;2023-02-15T07:15:43;0.60;99.90
58339;DHT22;48278;52.704;6.536;2023-02-15T07:18:08;0.50;99.90
58339;DHT22;48278;52.704;6.536;2023-02-15T07:20:36;0.60;99.90
58339;DHT22;48278;52.704;6.536;2023-02-15T07:23:03;0.70;99.90
58339;DHT22;48278;52.704;6.536;2023-02-15T07:25:29;0.80;99.90
58339;DHT22;48278;52.704;6.536;2023-02-15T07:27:59;0.90;99.90
58339;DHT22;48278;52.704;6.536;2023-02-15T07:30:26;0.90;99.90
58339;DHT22;48278;52.704;6.536;2023-02-15T07:32:58;0.90;99.90
58339;DHT22;48278;52.704;6.536;2023-02-15T07:35:53;0.90;99.90
58339;DHT22;48278;52.704;6.536;2023-02-15T07:38:20;1.00;99.90
58339;DHT22;48278;52.704;6.536;2023-02-15T07:40:46;0.90;99.90
58339;DHT22;48278;52.704;6.536;2023-02-15T07:43:13;1.00;99.90
58339;DHT22;48278;52.704;6.536;2023-02-15T07:45:39;1.00;99.90
58339;DHT22;48278;52.704;6.536;2023-02-15T07:48:06;1.10;99.90
58339;DHT22;48278;52.704;6.536;2023-02-15T07:50:32;1.10;99.90
58339;DHT22;48278;52.704;6.536;2023-02-15T07:52:58;1.20;99.90
58339;DHT22;48278;52.704;6.536;2023-02-15T07:55:24;1.20;99.90
58339;DHT22;48278;52.704;6.536;2023-02-15T07:57:50;1.20;99.90
58339;DHT22;48278;52.704;6.536;2023-02-15T08:00:18;1.30;99.90
58339;DHT22;48278;52.704;6.536;2023-02-15T08:02:51;1.40;99.90
58339;DHT22;48278;52.704;6.536;2023-02-15T08:05:36;1.50;99.90
58339;DHT22;48278;52.704;6.536;2023-02-15T08:08:02;1.40;99.90
58339;DHT22;48278;52.704;6.536;2023-02-15T08:10:27;1.40;99.90
58339;DHT22;48278;52.704;6.536;2023-02-15T08:13:12;1.50;99.90
58339;DHT22;48278;52.704;6.536;2023-02-15T08:15:38;1.60;99.90
58339;DHT22;48278;52.704;6.536;2023-02-15T08:18:03;1.60;99.90
58339;DHT22;48278;52.704;6.536;2023-02-15T08:20:30;1.70;99.90
58339;DHT22;48278;52.704;6.536;2023-02-15T08:22:56;1.70;99.90
58339;DHT22;48278;52.704;6.536;2023-02-15T08:25:22;1.80;99.90
58339;DHT22;48278;52.704;6.536;2023-02-15T08:27:48;1.80;99.90
58339;DHT22;48278;52.704;6.536;2023-02-15T08:30:14;1.80;99.90
58339;DHT22;48278;52.704;6.536;2023-02-15T08:32:40;1.90;99.90
58339;DHT22;48278;52.704;6.536;2023-02-15T08:35:06;2.00;99.90
58339;DHT22;48278;52.704;6.536;2023-02-15T08:37:32;2.00;99.90
58339;DHT22;48278;52.704;6.536;2023-02-15T08:39:57;2.20;99.90
58339;DHT22;48278;52.704;6.536;2023-02-15T08:42:23;2.20;99.90
58339;DHT22;48278;52.704;6.536;2023-02-15T08:44:49;2.30;99.90
58339;DHT22;48278;52.704;6.536;2023-02-15T08:47:16;2.30;99.90
58339;DHT22;48278;52.704;6.536;2023-02-15T08:49:42;2.40;99.90
58339;DHT22;48278;52.704;6.536;2023-02-15T08:52:08;2.50;99.90
58339;DHT22;48278;52.704;6.536;2023-02-15T08:54:33;2.50;99.90
58339;DHT22;48278;52.704;6.536;2023-02-15T08:56:59;2.60;99.90
58339;DHT22;48278;52.704;6.536;2023-02-15T08:59:25;2.70;99.90
58339;DHT22;48278;52.704;6.536;2023-02-15T09:01:53;2.70;99.90
58339;DHT22;48278;52.704;6.536;2023-02-15T09:04:20;2.80;99.90
58339;DHT22;48278;52.704;6.536;2023-02-15T09:06:47;2.80;99.90
58339;DHT22;48278;52.704;6.536;2023-02-15T09:09:13;2.90;99.90
58339;DHT22;48278;52.704;6.536;2023-02-15T09:11:41;3.00;99.90
58339;DHT22;48278;52.704;6.536;2023-02-15T09:14:16;3.00;99.90
58339;DHT22;48278;52.704;6.536;2023-02-15T09:16:45;3.10;99.90
58339;DHT22;48278;52.704;6.536;2023-02-15T09:19:16;3.20;99.90
58339;DHT22;48278;52.704;6.536;2023-02-15T09:21:43;3.30;99.90
58339;DHT22;48278;52.704;6.536;2023-02-15T09:24:11;3.30;99.90
58339;DHT22;48278;52.704;6.536;2023-02-15T09:26:39;3.40;99.90
58339;DHT22;48278;52.704;6.536;2023-02-15T09:29:09;3.50;99.90
58339;DHT22;48278;52.704;6.536;2023-02-15T09:31:45;3.50;99.90
58339;DHT22;48278;52.704;6.536;2023-02-15T09:34:16;3.60;99.90
58339;DHT22;48278;52.704;6.536;2023-02-15T09:36:43;3.70;99.90
58339;DHT22;48278;52.704;6.536;2023-02-15T09:39:19;3.80;99.90
58339;DHT22;48278;52.704;6.536;2023-02-15T09:56:19;4.30;99.90
58339;DHT22;48278;52.704;6.536;2023-02-15T10:02:24;4.60;99.90
58339;DHT22;48278;52.704;6.536;2023-02-15T10:11:27;4.80;99.90
58339;DHT22;48278;52.704;6.536;2023-02-15T10:14:17;4.90;99.90
58339;DHT22;48278;52.704;6.536;2023-02-15T10:27:46;5.30;99.90
58339;DHT22;48278;52.704;6.536;2023-02-15T10:47:37;6.10;99.90
58339;DHT22;48278;52.704;6.536;2023-02-15T10:50:27;6.30;99.90
58339;DHT22;48278;52.704;6.536;2023-02-15T11:01:47;6.70;99.90
58339;DHT22;48278;52.704;6.536;2023-02-15T11:06:54;6.80;99.90
58339;DHT22;48278;52.704;6.536;2023-02-15T11:09:25;7.00;99.90
58339;DHT22;48278;52.704;6.536;2023-02-15T11:11:56;7.10;99.90
58339;DHT22;48278;52.704;6.536;2023-02-15T11:14:38;7.20;99.90
58339;DHT22;48278;52.704;6.536;2023-02-15T11:17:21;7.20;99.90
58339;DHT22;48278;52.704;6.536;2023-02-15T11:20:00;7.30;99.90
58339;DHT22;48278;52.704;6.536;2023-02-15T11:22:30;7.30;99.90
58339;DHT22;48278;52.704;6.536;2023-02-15T11:24:58;7.40;99.90
58339;DHT22;48278;52.704;6.536;2023-02-15T11:27:25;7.50;99.90
58339;DHT22;48278;52.704;6.536;2023-02-15T11:30:17;7.60;99.90
58339;DHT22;48278;52.704;6.536;2023-02-15T11:32:50;7.70;99.90
58339;DHT22;48278;52.704;6.536;2023-02-15T11:35:22;7.80;99.90
58339;DHT22;48278;52.704;6.536;2023-02-15T11:43:26;8.10;99.90
58339;DHT22;48278;52.704;6.536;2023-02-15T11:45:54;8.10;99.90
58339;DHT22;48278;52.704;6.536;2023-02-15T11:48:20;8.20;99.90
58339;DHT22;48278;52.704;6.536;2023-02-15T11:50:46;8.10;99.90
58339;DHT22;48278;52.704;6.536;2023-02-15T11:53:15;8.20;99.90
58339;DHT22;48278;52.704;6.536;2023-02-15T11:55:46;8.20;99.90
58339;DHT22;48278;52.704;6.536;2023-02-15T11:58:27;8.30;99.90
58339;DHT22;48278;52.704;6.536;2023-02-15T12:01:24;8.20;99.90
58339;DHT22;48278;52.704;6.536;2023-02-15T12:06:28;8.40;99.90
58339;DHT22;48278;52.704;6.536;2023-02-15T12:11:37;8.50;99.90
58339;DHT22;48278;52.704;6.536;2023-02-15T12:14:09;8.70;99.90
58339;DHT22;48278;52.704;6.536;2023-02-15T12:16:46;8.80;99.90
58339;DHT22;48278;52.704;6.536;2023-02-15T12:21:52;9.00;99.90
58339;DHT22;48278;52.704;6.536;2023-02-15T12:24:28;9.00;99.90
58339;DHT22;48278;52.704;6.536;2023-02-15T12:29:39;9.00;99.90
58339;DHT22;48278;52.704;6.536;2023-02-15T12:32:06;9.00;99.90
58339;DHT22;48278;52.704;6.536;2023-02-15T12:34:38;9.10;99.90
58339;DHT22;48278;52.704;6.536;2023-02-15T12:37:17;9.10;99.90
58339;DHT22;48278;52.704;6.536;2023-02-15T12:40:11;9.10;99.90
58339;DHT22;48278;52.704;6.536;2023-02-15T12:42:44;9.10;99.90
58339;DHT22;48278;52.704;6.536;2023-02-15T12:45:39;9.20;99.90
58339;DHT22;48278;52.704;6.536;2023-02-15T12:48:09;9.20;99.90
58339;DHT22;48278;52.704;6.536;2023-02-15T12:50:36;9.20;99.90
58339;DHT22;48278;52.704;6.536;2023-02-15T12:53:14;9.20;99.90
58339;DHT22;48278;52.704;6.536;2023-02-15T12:56:01;9.30;99.90
58339;DHT22;48278;52.704;6.536;2023-02-15T12:58:32;9.40;99.90
58339;DHT22;48278;52.704;6.536;2023-02-15T13:01:04;9.50;99.90
58339;DHT22;48278;52.704;6.536;2023-02-15T13:03:36;9.50;99.90
58339;DHT22;48278;52.704;6.536;2023-02-15T13:06:03;9.60;99.90
58339;DHT22;48278;52.704;6.536;2023-02-15T13:09:05;9.70;99.90
58339;DHT22;48278;52.704;6.536;2023-02-15T13:11:32;9.70;99.90
58339;DHT22;48278;52.704;6.536;2023-02-15T13:14:16;9.80;99.90
58339;DHT22;48278;52.704;6.536;2023-02-15T13:16:44;9.90;99.90
58339;DHT22;48278;52.704;6.536;2023-02-15T13:19:15;10.00;99.90
58339;DHT22;48278;52.704;6.536;2023-02-15T13:21:45;10.00;99.90
58339;DHT22;48278;52.704;6.536;2023-02-15T13:24:25;10.20;99.90
58339;DHT22;48278;52.704;6.536;2023-02-15T13:26:55;10.20;99.90
58339;DHT22;48278;52.704;6.536;2023-02-15T13:29:27;10.30;99.90
58339;DHT22;48278;52.704;6.536;2023-02-15T13:31:54;10.30;99.90
58339;DHT22;48278;52.704;6.536;2023-02-15T13:34:35;10.40;99.90
58339;DHT22;48278;52.704;6.536;2023-02-15T13:47:23;10.60;99.90
58339;DHT22;48278;52.704;6.536;2023-02-15T13:52:33;10.70;99.90
58339;DHT22;48278;52.704;6.536;2023-02-15T14:00:53;11.00;99.90
58339;DHT22;48278;52.704;6.536;2023-02-15T14:03:43;10.90;99.90
58339;DHT22;48278;52.704;6.536;2023-02-15T14:12:18;11.00;99.90
58339;DHT22;48278;52.704;6.536;2023-02-15T14:15:00;11.00;99.90
58339;DHT22;48278;52.704;6.536;2023-02-15T14:25:42;10.80;99.90
58339;DHT22;48278;52.704;6.536;2023-02-15T14:28:15;10.70;99.90
58339;DHT22;48278;52.704;6.536;2023-02-15T14:30:48;10.70;99.90
58339;DHT22;48278;52.704;6.536;2023-02-15T14:35:41;10.60;99.90
58339;DHT22;48278;52.704;6.536;2023-02-15T14:38:37;10.60;99.90
58339;DHT22;48278;52.704;6.536;2023-02-15T14:41:14;10.60;99.90
58339;DHT22;48278;52.704;6.536;2023-02-15T14:47:06;10.80;99.90
58339;DHT22;48278;52.704;6.536;2023-02-15T14:49:37;10.80;99.90
58339;DHT22;48278;52.704;6.536;2023-02-15T14:52:08;10.80;99.90
58339;DHT22;48278;52.704;6.536;2023-02-15T14:59:50;10.70;99.90
58339;DHT22;48278;52.704;6.536;2023-02-15T15:07:25;10.60;99.90
58339;DHT22;48278;52.704;6.536;2023-02-15T15:12:42;10.60;99.90
58339;DHT22;48278;52.704;6.536;2023-02-15T15:17:55;10.50;99.90
58339;DHT22;48278;52.704;6.536;2023-02-15T15:20:56;10.50;99.90
58339;DHT22;48278;52.704;6.536;2023-02-15T15:25:55;10.40;99.90
58339;DHT22;48278;52.704;6.536;2023-02-15T15:42:50;10.00;99.90
58339;DHT22;48278;52.704;6.536;2023-02-15T15:45:12;9.90;99.90
58339;DHT22;48278;52.704;6.536;2023-02-15T15:48:25;9.80;99.90
58339;DHT22;48278;52.704;6.536;2023-02-15T15:51:31;9.80;99.90
58339;DHT22;48278;52.704;6.536;2023-02-15T15:53:50;9.70;99.90
58339;DHT22;48278;52.704;6.536;2023-02-15T15:56:26;9.60;99.90
58339;DHT22;48278;52.704;6.536;2023-02-15T15:59:01;9.60;99.90
58339;DHT22;48278;52.704;6.536;2023-02-15T16:01:39;9.50;99.90
58339;DHT22;48278;52.704;6.536;2023-02-15T16:04:12;9.40;99.90
58339;DHT22;48278;52.704;6.536;2023-02-15T16:06:39;9.40;99.90
58339;DHT22;48278;52.704;6.536;2023-02-15T16:09:12;9.20;99.90
58339;DHT22;48278;52.704;6.536;2023-02-15T16:11:39;9.20;99.90
58339;DHT22;48278;52.704;6.536;2023-02-15T16:14:30;9.00;99.90
58339;DHT22;48278;52.704;6.536;2023-02-15T16:17:01;9.00;99.90
58339;DHT22;48278;52.704;6.536;2023-02-15T16:19:31;8.90;99.90
58339;DHT22;48278;52.704;6.536;2023-02-15T16:21:59;8.80;99.90
58339;DHT22;48278;52.704;6.536;2023-02-15T16:29:40;8.60;99.90
58339;DHT22;48278;52.704;6.536;2023-02-15T16:32:25;8.50;99.90
58339;DHT22;48278;52.704;6.536;2023-02-15T16:35:02;8.40;99.90
58339;DHT22;48278;52.704;6.536;2023-02-15T16:37:33;8.40;99.90
58339;DHT22;48278;52.704;6.536;2023-02-15T16:39:58;8.30;99.90
58339;DHT22;48278;52.704;6.536;2023-02-15T16:42:25;8.20;99.90
58339;DHT22;48278;52.704;6.536;2023-02-15T16:44:55;8.20;99.90
58339;DHT22;48278;52.704;6.536;2023-02-15T16:47:28;8.10;99.90
58339;DHT22;48278;52.704;6.536;2023-02-15T16:49:58;8.10;99.90
58339;DHT22;48278;52.704;6.536;2023-02-15T16:52:27;8.00;99.90
58339;DHT22;48278;52.704;6.536;2023-02-15T16:55:01;7.90;99.90
58339;DHT22;48278;52.704;6.536;2023-02-15T16:57:31;7.80;99.90
58339;DHT22;48278;52.704;6.536;2023-02-15T17:00:05;7.70;99.90
58339;DHT22;48278;52.704;6.536;2023-02-15T17:02:33;7.70;99.90
58339;DHT22;48278;52.704;6.536;2023-02-15T17:07:42;7.60;99.90
58339;DHT22;48278;52.704;6.536;2023-02-15T17:10:34;7.50;99.90
58339;DHT22;48278;52.704;6.536;2023-02-15T17:13:12;7.40;99.90
58339;DHT22;48278;52.704;6.536;2023-02-15T17:15:39;7.50;99.90
58339;DHT22;48278;52.704;6.536;2023-02-15T17:18:15;7.40;99.90
58339;DHT22;48278;52.704;6.536;2023-02-15T17:20:42;7.40;99.90
58339;DHT22;48278;52.704;6.536;2023-02-15T17:25:53;7.20;99.90
58339;DHT22;48278;52.704;6.536;2023-02-15T17:28:21;7.30;99.90
58339;DHT22;48278;52.704;6.536;2023-02-15T17:30:49;7.30;99.90
58339;DHT22;48278;52.704;6.536;2023-02-15T17:33:39;7.10;99.90
58339;DHT22;48278;52.704;6.536;2023-02-15T17:36:19;7.10;99.90
58339;DHT22;48278;52.704;6.536;2023-02-15T17:41:29;6.90;99.90
58339;DHT22;48278;52.704;6.536;2023-02-15T17:43:55;6.90;99.90
58339;DHT22;48278;52.704;6.536;2023-02-15T17:46:22;6.90;99.90
58339;DHT22;48278;52.704;6.536;2023-02-15T17:48:51;7.00;99.90
58339;DHT22;48278;52.704;6.536;2023-02-15T17:51:18;6.80;99.90
58339;DHT22;48278;52.704;6.536;2023-02-15T17:53:45;6.80;99.90
58339;DHT22;48278;52.704;6.536;2023-02-15T17:56:35;6.70;99.90
58339;DHT22;48278;52.704;6.536;2023-02-15T17:59:01;6.70;99.90
58339;DHT22;48278;52.704;6.536;2023-02-15T18:01:33;6.70;99.90
58339;DHT22;48278;52.704;6.536;2023-02-15T18:04:19;6.60;99.90
58339;DHT22;48278;52.704;6.536;2023-02-15T18:07:04;6.60;99.90
58339;DHT22;48278;52.704;6.536;2023-02-15T18:09:48;6.50;99.90
58339;DHT22;48278;52.704;6.536;2023-02-15T18:12:35;6.50;99.90
58339;DHT22;48278;52.704;6.536;2023-02-15T18:15:04;6.40;99.90
58339;DHT22;48278;52.704;6.536;2023-02-15T18:17:35;6.40;99.90
58339;DHT22;48278;52.704;6.536;2023-02-15T18:20:37;6.30;99.90
58339;DHT22;48278;52.704;6.536;2023-02-15T18:22:56;6.30;99.90
58339;DHT22;48278;52.704;6.536;2023-02-15T18:25:22;6.20;99.90
58339;DHT22;48278;52.704;6.536;2023-02-15T18:27:52;6.20;99.90
58339;DHT22;48278;52.704;6.536;2023-02-15T18:30:20;6.10;99.90
58339;DHT22;48278;52.704;6.536;2023-02-15T18:32:47;6.10;99.90
58339;DHT22;48278;52.704;6.536;2023-02-15T18:35:21;6.00;99.90
58339;DHT22;48278;52.704;6.536;2023-02-15T18:37:47;6.00;99.90
58339;DHT22;48278;52.704;6.536;2023-02-15T18:40:15;6.00;99.90
58339;DHT22;48278;52.704;6.536;2023-02-15T18:42:42;6.00;99.90
58339;DHT22;48278;52.704;6.536;2023-02-15T18:45:21;5.90;99.90
58339;DHT22;48278;52.704;6.536;2023-02-15T18:47:49;5.90;99.90
58339;DHT22;48278;52.704;6.536;2023-02-15T18:50:17;5.80;99.90
58339;DHT22;48278;52.704;6.536;2023-02-15T18:52:45;5.80;99.90
58339;DHT22;48278;52.704;6.536;2023-02-15T18:55:27;5.80;99.90
58339;DHT22;48278;52.704;6.536;2023-02-15T18:57:55;5.70;99.90
58339;DHT22;48278;52.704;6.536;2023-02-15T19:00:30;5.70;99.90
58339;DHT22;48278;52.704;6.536;2023-02-15T19:02:59;5.60;99.90
58339;DHT22;48278;52.704;6.536;2023-02-15T19:05:28;5.60;99.90
58339;DHT22;48278;52.704;6.536;2023-02-15T19:07:55;5.60;99.90
58339;DHT22;48278;52.704;6.536;2023-02-15T19:10:23;5.50;99.90
58339;DHT22;48278;52.704;6.536;2023-02-15T19:12:52;5.60;99.90
58339;DHT22;48278;52.704;6.536;2023-02-15T19:15:26;5.60;99.90
58339;DHT22;48278;52.704;6.536;2023-02-15T19:17:53;5.60;99.90
58339;DHT22;48278;52.704;6.536;2023-02-15T19:20:29;5.50;99.90
58339;DHT22;48278;52.704;6.536;2023-02-15T19:22:56;5.50;99.90
58339;DHT22;48278;52.704;6.536;2023-02-15T19:25:24;5.50;99.90
58339;DHT22;48278;52.704;6.536;2023-02-15T19:27:51;5.50;99.90